sensor_id;sensor_type;location;lat;lon;timestamp;P1;durP1;ratioP1;P2;durP2;ratioP2
75012;SDS011;63567;49.956;20.130;2023-02-28T00:00:29;16.70;;;7.57;;
75012;SDS011;63567;49.956;20.130;2023-02-28T00:02:55;15.73;;;7.65;;
75012;SDS011;63567;49.956;20.130;2023-02-28T00:05:21;15.90;;;7.60;;
75012;SDS011;63567;49.956;20.130;2023-02-28T00:07:47;17.77;;;7.70;;
75012;SDS011;63567;49.956;20.130;2023-02-28T00:10:15;16.85;;;7.18;;
75012;SDS011;63567;49.956;20.130;2023-02-28T00:12:49;16.35;;;6.80;;
75012;SDS011;63567;49.956;20.130;2023-02-28T00:15:16;16.23;;;7.22;;
75012;SDS011;63567;49.956;20.130;2023-02-28T00:17:42;13.80;;;6.90;;
75012;SDS011;63567;49.956;20.130;2023-02-28T00:20:08;13.60;;;6.45;;
75012;SDS011;63567;49.956;20.130;2023-02-28T00:22:35;15.02;;;6.72;;
75012;SDS011;63567;49.956;20.130;2023-02-28T00:25:02;16.45;;;7.57;;
75012;SDS011;63567;49.956;20.130;2023-02-28T00:27:28;15.73;;;8.15;;
75012;SDS011;63567;49.956;20.130;2023-02-28T00:29:53;17.43;;;8.20;;
75012;SDS011;63567;49.956;20.130;2023-02-28T00:32:19;17.73;;;8.05;;
75012;SDS011;63567;49.956;20.130;2023-02-28T00:34:44;14.70;;;7.47;;
75012;SDS011;63567;49.956;20.130;2023-02-28T00:37:09;17.20;;;8.40;;
75012;SDS011;63567;49.956;20.130;2023-02-28T00:39:37;15.73;;;7.85;;
75012;SDS011;63567;49.956;20.130;2023-02-28T00:42:03;14.48;;;7.35;;
75012;SDS011;63567;49.956;20.130;2023-02-28T00:44:29;14.63;;;7.45;;
75012;SDS011;63567;49.956;20.130;2023-02-28T00:46:55;15.80;;;7.45;;
75012;SDS011;63567;49.956;20.130;2023-02-28T00:49:21;14.60;;;7.18;;
75012;SDS011;63567;49.956;20.130;2023-02-28T00:51:46;13.50;;;6.75;;
75012;SDS011;63567;49.956;20.130;2023-02-28T00:54:12;15.30;;;7.40;;
75012;SDS011;63567;49.956;20.130;2023-02-28T00:56:37;13.07;;;7.20;;
75012;SDS011;63567;49.956;20.130;2023-02-28T00:59:03;14.52;;;6.95;;
75012;SDS011;63567;49.956;20.130;2023-02-28T01:01:28;16.00;;;7.37;;
75012;SDS011;63567;49.956;20.130;2023-02-28T01:03:53;14.90;;;7.03;;
75012;SDS011;63567;49.956;20.130;2023-02-28T01:06:18;13.13;;;7.00;;
75012;SDS011;63567;49.956;20.130;2023-02-28T01:08:44;15.33;;;6.83;;
75012;SDS011;63567;49.956;20.130;2023-02-28T01:11:10;16.73;;;7.60;;
75012;SDS011;63567;49.956;20.130;2023-02-28T01:13:36;17.27;;;7.60;;
75012;SDS011;63567;49.956;20.130;2023-02-28T01:16:02;13.18;;;7.07;;
75012;SDS011;63567;49.956;20.130;2023-02-28T01:18:27;14.53;;;6.70;;
75012;SDS011;63567;49.956;20.130;2023-02-28T01:20:53;15.75;;;7.30;;
75012;SDS011;63567;49.956;20.130;2023-02-28T01:23:20;13.57;;;7.25;;
75012;SDS011;63567;49.956;20.130;2023-02-28T01:25:48;13.00;;;6.85;;
75012;SDS011;63567;49.956;20.130;2023-02-28T01:28:14;13.73;;;7.18;;
75012;SDS011;63567;49.956;20.130;2023-02-28T01:30:39;13.10;;;6.43;;
75012;SDS011;63567;49.956;20.130;2023-02-28T01:33:05;11.37;;;6.50;;
75012;SDS011;63567;49.956;20.130;2023-02-28T01:35:34;12.77;;;6.57;;
75012;SDS011;63567;49.956;20.130;2023-02-28T01:38:00;13.57;;;6.97;;
75012;SDS011;63567;49.956;20.130;2023-02-28T01:40:25;15.35;;;7.10;;
75012;SDS011;63567;49.956;20.130;2023-02-28T01:42:51;13.80;;;6.40;;
75012;SDS011;63567;49.956;20.130;2023-02-28T01:45:25;15.53;;;6.37;;
75012;SDS011;63567;49.956;20.130;2023-02-28T01:47:58;16.02;;;7.35;;
75012;SDS011;63567;49.956;20.130;2023-02-28T01:50:28;16.23;;;7.50;;
75012;SDS011;63567;49.956;20.130;2023-02-28T01:52:57;17.85;;;8.10;;
75012;SDS011;63567;49.956;20.130;2023-02-28T01:55:26;15.43;;;7.38;;
75012;SDS011;63567;49.956;20.130;2023-02-28T01:57:55;15.73;;;7.95;;
75012;SDS011;63567;49.956;20.130;2023-02-28T02:00:24;18.42;;;8.23;;
75012;SDS011;63567;49.956;20.130;2023-02-28T02:02:55;18.85;;;8.48;;
75012;SDS011;63567;49.956;20.130;2023-02-28T02:05:27;17.63;;;7.93;;
75012;SDS011;63567;49.956;20.130;2023-02-28T02:07:56;18.73;;;8.57;;
75012;SDS011;63567;49.956;20.130;2023-02-28T02:10:31;16.63;;;8.43;;
75012;SDS011;63567;49.956;20.130;2023-02-28T02:34:57;19.05;;;9.23;;
75012;SDS011;63567;49.956;20.130;2023-02-28T02:37:51;19.38;;;8.10;;
75012;SDS011;63567;49.956;20.130;2023-02-28T02:42:55;20.33;;;8.77;;
75012;SDS011;63567;49.956;20.130;2023-02-28T02:47:53;19.00;;;7.63;;
75012;SDS011;63567;49.956;20.130;2023-02-28T02:50:24;15.60;;;7.30;;
75012;SDS011;63567;49.956;20.130;2023-02-28T02:52:55;19.05;;;8.20;;
75012;SDS011;63567;49.956;20.130;2023-02-28T02:55:24;14.18;;;7.30;;
75012;SDS011;63567;49.956;20.130;2023-02-28T02:57:52;17.00;;;8.30;;
75012;SDS011;63567;49.956;20.130;2023-02-28T03:00:23;19.08;;;8.77;;
75012;SDS011;63567;49.956;20.130;2023-02-28T03:02:52;19.77;;;9.13;;
75012;SDS011;63567;49.956;20.130;2023-02-28T03:05:26;20.27;;;9.30;;
75012;SDS011;63567;49.956;20.130;2023-02-28T03:07:57;20.92;;;9.00;;
75012;SDS011;63567;49.956;20.130;2023-02-28T03:10:26;18.83;;;8.63;;
75012;SDS011;63567;49.956;20.130;2023-02-28T03:12:54;22.05;;;8.98;;
75012;SDS011;63567;49.956;20.130;2023-02-28T03:15:48;20.02;;;9.20;;
75012;SDS011;63567;49.956;20.130;2023-02-28T03:18:29;16.77;;;8.43;;
75012;SDS011;63567;49.956;20.130;2023-02-28T03:27:04;20.00;;;8.23;;
75012;SDS011;63567;49.956;20.130;2023-02-28T03:29:57;20.70;;;10.02;;
75012;SDS011;63567;49.956;20.130;2023-02-28T03:32:33;20.60;;;9.23;;
75012;SDS011;63567;49.956;20.130;2023-02-28T03:37:39;16.17;;;8.27;;
75012;SDS011;63567;49.956;20.130;2023-02-28T03:40:11;16.05;;;8.10;;
75012;SDS011;63567;49.956;20.130;2023-02-28T03:42:41;19.17;;;8.98;;
75012;SDS011;63567;49.956;20.130;2023-02-28T03:45:16;19.05;;;8.40;;
75012;SDS011;63567;49.956;20.130;2023-02-28T03:47:46;17.85;;;8.15;;
75012;SDS011;63567;49.956;20.130;2023-02-28T03:50:19;18.65;;;8.32;;
75012;SDS011;63567;49.956;20.130;2023-02-28T03:53:00;16.92;;;8.68;;
75012;SDS011;63567;49.956;20.130;2023-02-28T03:55:30;21.50;;;8.85;;
75012;SDS011;63567;49.956;20.130;2023-02-28T03:58:20;19.48;;;8.65;;
75012;SDS011;63567;49.956;20.130;2023-02-28T04:00:54;19.88;;;9.00;;
75012;SDS011;63567;49.956;20.130;2023-02-28T04:03:32;18.23;;;8.43;;
75012;SDS011;63567;49.956;20.130;2023-02-28T04:05:57;22.67;;;9.00;;
75012;SDS011;63567;49.956;20.130;2023-02-28T04:08:23;17.10;;;7.85;;
75012;SDS011;63567;49.956;20.130;2023-02-28T04:10:54;20.87;;;9.30;;
75012;SDS011;63567;49.956;20.130;2023-02-28T04:13:30;19.92;;;8.10;;
75012;SDS011;63567;49.956;20.130;2023-02-28T04:15:56;19.23;;;8.63;;
75012;SDS011;63567;49.956;20.130;2023-02-28T04:18:21;23.57;;;9.27;;
75012;SDS011;63567;49.956;20.130;2023-02-28T04:20:47;16.23;;;8.77;;
75012;SDS011;63567;49.956;20.130;2023-02-28T04:23:12;22.83;;;9.67;;
75012;SDS011;63567;49.956;20.130;2023-02-28T04:25:37;19.17;;;8.63;;
75012;SDS011;63567;49.956;20.130;2023-02-28T04:28:05;19.75;;;8.48;;
75012;SDS011;63567;49.956;20.130;2023-02-28T04:30:30;17.73;;;8.43;;
75012;SDS011;63567;49.956;20.130;2023-02-28T04:32:57;20.05;;;8.25;;
75012;SDS011;63567;49.956;20.130;2023-02-28T04:35:22;18.80;;;9.13;;
75012;SDS011;63567;49.956;20.130;2023-02-28T04:37:48;21.30;;;8.70;;
75012;SDS011;63567;49.956;20.130;2023-02-28T04:40:13;19.43;;;8.07;;
75012;SDS011;63567;49.956;20.130;2023-02-28T04:42:38;17.92;;;9.10;;
75012;SDS011;63567;49.956;20.130;2023-02-28T04:45:04;19.37;;;9.10;;
75012;SDS011;63567;49.956;20.130;2023-02-28T04:47:30;21.08;;;8.43;;
75012;SDS011;63567;49.956;20.130;2023-02-28T04:49:55;15.38;;;7.85;;
75012;SDS011;63567;49.956;20.130;2023-02-28T04:52:20;20.27;;;8.70;;
75012;SDS011;63567;49.956;20.130;2023-02-28T04:54:46;19.10;;;8.75;;
75012;SDS011;63567;49.956;20.130;2023-02-28T04:57:11;19.40;;;8.70;;
75012;SDS011;63567;49.956;20.130;2023-02-28T04:59:37;21.93;;;8.93;;
75012;SDS011;63567;49.956;20.130;2023-02-28T05:02:02;19.00;;;8.35;;
75012;SDS011;63567;49.956;20.130;2023-02-28T05:04:31;20.02;;;8.18;;
75012;SDS011;63567;49.956;20.130;2023-02-28T05:07:00;18.73;;;8.73;;
75012;SDS011;63567;49.956;20.130;2023-02-28T05:09:26;22.38;;;9.25;;
75012;SDS011;63567;49.956;20.130;2023-02-28T05:11:52;21.15;;;8.43;;
75012;SDS011;63567;49.956;20.130;2023-02-28T05:14:17;24.60;;;8.95;;
75012;SDS011;63567;49.956;20.130;2023-02-28T05:16:42;20.33;;;8.77;;
75012;SDS011;63567;49.956;20.130;2023-02-28T05:19:08;19.92;;;9.10;;
75012;SDS011;63567;49.956;20.130;2023-02-28T05:21:34;16.88;;;7.97;;
75012;SDS011;63567;49.956;20.130;2023-02-28T05:24:02;19.65;;;8.63;;
75012;SDS011;63567;49.956;20.130;2023-02-28T05:26:36;18.45;;;8.65;;
75012;SDS011;63567;49.956;20.130;2023-02-28T05:29:03;19.92;;;8.27;;
75012;SDS011;63567;49.956;20.130;2023-02-28T05:31:28;21.42;;;8.82;;
75012;SDS011;63567;49.956;20.130;2023-02-28T05:33:54;20.07;;;9.33;;
75012;SDS011;63567;49.956;20.130;2023-02-28T05:36:19;19.63;;;8.40;;
75012;SDS011;63567;49.956;20.130;2023-02-28T05:38:46;18.20;;;8.43;;
75012;SDS011;63567;49.956;20.130;2023-02-28T05:41:12;18.45;;;8.68;;
75012;SDS011;63567;49.956;20.130;2023-02-28T05:43:37;22.50;;;9.37;;
75012;SDS011;63567;49.956;20.130;2023-02-28T05:46:04;20.02;;;9.27;;
75012;SDS011;63567;49.956;20.130;2023-02-28T05:50:59;19.45;;;9.05;;
75012;SDS011;63567;49.956;20.130;2023-02-28T05:53:24;20.52;;;9.57;;
75012;SDS011;63567;49.956;20.130;2023-02-28T05:55:51;19.50;;;9.13;;
75012;SDS011;63567;49.956;20.130;2023-02-28T05:58:16;19.93;;;9.40;;
75012;SDS011;63567;49.956;20.130;2023-02-28T06:00:41;19.90;;;9.13;;
75012;SDS011;63567;49.956;20.130;2023-02-28T06:03:06;20.23;;;9.27;;
75012;SDS011;63567;49.956;20.130;2023-02-28T06:05:32;20.53;;;9.27;;
75012;SDS011;63567;49.956;20.130;2023-02-28T06:07:58;21.25;;;9.30;;
75012;SDS011;63567;49.956;20.130;2023-02-28T06:10:23;22.60;;;10.83;;
75012;SDS011;63567;49.956;20.130;2023-02-28T06:12:48;20.85;;;9.85;;
75012;SDS011;63567;49.956;20.130;2023-02-28T06:15:14;22.02;;;10.05;;
75012;SDS011;63567;49.956;20.130;2023-02-28T06:17:40;20.00;;;9.52;;
75012;SDS011;63567;49.956;20.130;2023-02-28T06:20:07;18.02;;;8.30;;
75012;SDS011;63567;49.956;20.130;2023-02-28T06:22:33;20.63;;;9.00;;
75012;SDS011;63567;49.956;20.130;2023-02-28T06:25:00;18.55;;;9.20;;
75012;SDS011;63567;49.956;20.130;2023-02-28T06:27:25;22.97;;;10.27;;
75012;SDS011;63567;49.956;20.130;2023-02-28T06:29:53;20.10;;;9.37;;
75012;SDS011;63567;49.956;20.130;2023-02-28T06:32:20;18.45;;;8.98;;
75012;SDS011;63567;49.956;20.130;2023-02-28T06:34:46;19.73;;;9.68;;
75012;SDS011;63567;49.956;20.130;2023-02-28T06:37:11;20.27;;;9.73;;
75012;SDS011;63567;49.956;20.130;2023-02-28T06:39:36;21.77;;;10.50;;
75012;SDS011;63567;49.956;20.130;2023-02-28T06:42:01;19.67;;;10.27;;
75012;SDS011;63567;49.956;20.130;2023-02-28T06:44:27;22.98;;;9.45;;
75012;SDS011;63567;49.956;20.130;2023-02-28T06:47:00;19.42;;;9.40;;
75012;SDS011;63567;49.956;20.130;2023-02-28T06:49:30;22.35;;;9.85;;
75012;SDS011;63567;49.956;20.130;2023-02-28T06:51:56;22.52;;;10.15;;
75012;SDS011;63567;49.956;20.130;2023-02-28T06:54:21;20.23;;;9.80;;
75012;SDS011;63567;49.956;20.130;2023-02-28T06:56:47;20.67;;;9.87;;
75012;SDS011;63567;49.956;20.130;2023-02-28T06:59:12;17.17;;;8.53;;
75012;SDS011;63567;49.956;20.130;2023-02-28T07:01:38;17.92;;;8.48;;
75012;SDS011;63567;49.956;20.130;2023-02-28T07:04:04;19.48;;;8.88;;
75012;SDS011;63567;49.956;20.130;2023-02-28T07:06:30;17.80;;;8.80;;
75012;SDS011;63567;49.956;20.130;2023-02-28T07:08:56;16.23;;;8.55;;
75012;SDS011;63567;49.956;20.130;2023-02-28T07:11:22;17.17;;;7.90;;
75012;SDS011;63567;49.956;20.130;2023-02-28T07:13:50;17.70;;;8.75;;
75012;SDS011;63567;49.956;20.130;2023-02-28T07:16:16;16.02;;;7.95;;
75012;SDS011;63567;49.956;20.130;2023-02-28T07:18:41;17.30;;;8.97;;
75012;SDS011;63567;49.956;20.130;2023-02-28T07:21:07;16.07;;;8.03;;
75012;SDS011;63567;49.956;20.130;2023-02-28T07:23:34;15.50;;;8.27;;
75012;SDS011;63567;49.956;20.130;2023-02-28T07:26:00;16.13;;;8.05;;
75012;SDS011;63567;49.956;20.130;2023-02-28T07:28:25;15.75;;;7.95;;
75012;SDS011;63567;49.956;20.130;2023-02-28T07:30:51;17.88;;;8.20;;
75012;SDS011;63567;49.956;20.130;2023-02-28T07:33:16;13.20;;;7.43;;
75012;SDS011;63567;49.956;20.130;2023-02-28T07:35:42;15.32;;;6.70;;
75012;SDS011;63567;49.956;20.130;2023-02-28T07:38:08;15.05;;;7.20;;
75012;SDS011;63567;49.956;20.130;2023-02-28T07:40:34;11.35;;;6.20;;
75012;SDS011;63567;49.956;20.130;2023-02-28T07:43:00;13.55;;;6.53;;
75012;SDS011;63567;49.956;20.130;2023-02-28T07:45:26;14.60;;;7.18;;
75012;SDS011;63567;49.956;20.130;2023-02-28T07:47:53;11.98;;;6.35;;
75012;SDS011;63567;49.956;20.130;2023-02-28T07:50:19;12.75;;;6.53;;
75012;SDS011;63567;49.956;20.130;2023-02-28T07:52:44;13.40;;;6.28;;
75012;SDS011;63567;49.956;20.130;2023-02-28T07:55:09;12.27;;;6.43;;
75012;SDS011;63567;49.956;20.130;2023-02-28T07:57:35;13.15;;;5.85;;
75012;SDS011;63567;49.956;20.130;2023-02-28T08:00:01;12.05;;;5.25;;
75012;SDS011;63567;49.956;20.130;2023-02-28T08:02:30;10.60;;;5.22;;
75012;SDS011;63567;49.956;20.130;2023-02-28T08:04:56;12.93;;;6.20;;
75012;SDS011;63567;49.956;20.130;2023-02-28T08:07:21;9.90;;;4.77;;
75012;SDS011;63567;49.956;20.130;2023-02-28T08:09:47;9.82;;;4.70;;
75012;SDS011;63567;49.956;20.130;2023-02-28T08:12:12;10.13;;;4.30;;
75012;SDS011;63567;49.956;20.130;2023-02-28T08:14:38;8.67;;;4.70;;
75012;SDS011;63567;49.956;20.130;2023-02-28T08:17:04;10.52;;;4.65;;
75012;SDS011;63567;49.956;20.130;2023-02-28T08:19:30;7.25;;;3.45;;
75012;SDS011;63567;49.956;20.130;2023-02-28T08:21:56;6.15;;;3.00;;
75012;SDS011;63567;49.956;20.130;2023-02-28T08:24:22;6.97;;;3.08;;
75012;SDS011;63567;49.956;20.130;2023-02-28T08:26:48;8.35;;;3.70;;
75012;SDS011;63567;49.956;20.130;2023-02-28T08:29:13;10.57;;;4.32;;
75012;SDS011;63567;49.956;20.130;2023-02-28T08:31:38;6.87;;;4.17;;
75012;SDS011;63567;49.956;20.130;2023-02-28T08:34:11;7.97;;;3.80;;
75012;SDS011;63567;49.956;20.130;2023-02-28T08:36:38;7.72;;;4.25;;
75012;SDS011;63567;49.956;20.130;2023-02-28T08:39:04;8.52;;;4.03;;
75012;SDS011;63567;49.956;20.130;2023-02-28T08:41:29;9.40;;;4.28;;
75012;SDS011;63567;49.956;20.130;2023-02-28T08:43:55;8.55;;;4.45;;
75012;SDS011;63567;49.956;20.130;2023-02-28T08:46:21;9.40;;;4.75;;
75012;SDS011;63567;49.956;20.130;2023-02-28T08:48:46;7.88;;;4.43;;
75012;SDS011;63567;49.956;20.130;2023-02-28T08:51:13;8.75;;;4.90;;
75012;SDS011;63567;49.956;20.130;2023-02-28T08:53:42;8.07;;;4.53;;
75012;SDS011;63567;49.956;20.130;2023-02-28T08:56:08;7.00;;;3.97;;
75012;SDS011;63567;49.956;20.130;2023-02-28T08:58:35;7.25;;;4.50;;
75012;SDS011;63567;49.956;20.130;2023-02-28T09:01:07;9.00;;;4.68;;
75012;SDS011;63567;49.956;20.130;2023-02-28T09:03:34;8.00;;;4.18;;
75012;SDS011;63567;49.956;20.130;2023-02-28T09:06:00;8.77;;;4.90;;
75012;SDS011;63567;49.956;20.130;2023-02-28T09:08:26;6.20;;;4.47;;
75012;SDS011;63567;49.956;20.130;2023-02-28T09:10:53;7.80;;;4.38;;
75012;SDS011;63567;49.956;20.130;2023-02-28T09:13:19;9.10;;;4.63;;
75012;SDS011;63567;49.956;20.130;2023-02-28T09:15:45;7.07;;;4.18;;
75012;SDS011;63567;49.956;20.130;2023-02-28T09:18:11;8.00;;;4.35;;
75012;SDS011;63567;49.956;20.130;2023-02-28T09:20:40;7.45;;;4.40;;
75012;SDS011;63567;49.956;20.130;2023-02-28T09:23:07;7.30;;;4.65;;
75012;SDS011;63567;49.956;20.130;2023-02-28T09:25:35;7.50;;;4.50;;
75012;SDS011;63567;49.956;20.130;2023-02-28T09:28:00;8.27;;;4.93;;
75012;SDS011;63567;49.956;20.130;2023-02-28T09:30:26;8.82;;;5.10;;
75012;SDS011;63567;49.956;20.130;2023-02-28T09:32:51;9.45;;;5.10;;
75012;SDS011;63567;49.956;20.130;2023-02-28T09:35:18;8.85;;;5.10;;
75012;SDS011;63567;49.956;20.130;2023-02-28T09:37:47;8.73;;;4.97;;
75012;SDS011;63567;49.956;20.130;2023-02-28T09:40:14;7.03;;;4.70;;
75012;SDS011;63567;49.956;20.130;2023-02-28T09:42:43;9.30;;;4.28;;
75012;SDS011;63567;49.956;20.130;2023-02-28T09:45:16;8.48;;;4.75;;
75012;SDS011;63567;49.956;20.130;2023-02-28T09:47:59;7.75;;;5.25;;
75012;SDS011;63567;49.956;20.130;2023-02-28T09:52:58;8.57;;;5.15;;
75012;SDS011;63567;49.956;20.130;2023-02-28T09:58:02;9.35;;;5.10;;
75012;SDS011;63567;49.956;20.130;2023-02-28T10:00:36;8.25;;;4.75;;
75012;SDS011;63567;49.956;20.130;2023-02-28T10:06:08;8.07;;;4.75;;
75012;SDS011;63567;49.956;20.130;2023-02-28T10:08:48;7.80;;;5.15;;
75012;SDS011;63567;49.956;20.130;2023-02-28T10:13:50;8.13;;;5.55;;
75012;SDS011;63567;49.956;20.130;2023-02-28T10:19:47;9.45;;;5.07;;
75012;SDS011;63567;49.956;20.130;2023-02-28T10:22:29;8.80;;;4.82;;
75012;SDS011;63567;49.956;20.130;2023-02-28T10:24:59;9.05;;;5.07;;
75012;SDS011;63567;49.956;20.130;2023-02-28T10:27:31;8.18;;;4.85;;
75012;SDS011;63567;49.956;20.130;2023-02-28T10:32:27;8.13;;;5.00;;
75012;SDS011;63567;49.956;20.130;2023-02-28T10:34:57;9.65;;;5.47;;
75012;SDS011;63567;49.956;20.130;2023-02-28T10:37:25;8.73;;;4.63;;
75012;SDS011;63567;49.956;20.130;2023-02-28T10:39:52;8.20;;;5.20;;
75012;SDS011;63567;49.956;20.130;2023-02-28T10:42:18;9.45;;;5.40;;
75012;SDS011;63567;49.956;20.130;2023-02-28T10:45:04;7.00;;;5.10;;
75012;SDS011;63567;49.956;20.130;2023-02-28T10:47:40;8.15;;;5.60;;
75012;SDS011;63567;49.956;20.130;2023-02-28T10:50:43;9.60;;;5.50;;
75012;SDS011;63567;49.956;20.130;2023-02-28T10:58:42;7.10;;;5.07;;
75012;SDS011;63567;49.956;20.130;2023-02-28T11:01:14;8.13;;;5.68;;
75012;SDS011;63567;49.956;20.130;2023-02-28T11:03:41;8.68;;;5.90;;
75012;SDS011;63567;49.956;20.130;2023-02-28T11:06:07;8.85;;;6.43;;
75012;SDS011;63567;49.956;20.130;2023-02-28T11:08:47;10.10;;;6.40;;
75012;SDS011;63567;49.956;20.130;2023-02-28T11:11:17;8.32;;;6.30;;
75012;SDS011;63567;49.956;20.130;2023-02-28T11:13:44;9.05;;;6.80;;
75012;SDS011;63567;49.956;20.130;2023-02-28T11:16:12;9.30;;;8.32;;
75012;SDS011;63567;49.956;20.130;2023-02-28T11:18:43;10.70;;;9.60;;
75012;SDS011;63567;49.956;20.130;2023-02-28T11:21:18;10.80;;;8.60;;
75012;SDS011;63567;49.956;20.130;2023-02-28T11:23:46;8.85;;;7.47;;
75012;SDS011;63567;49.956;20.130;2023-02-28T11:26:14;11.38;;;8.45;;
75012;SDS011;63567;49.956;20.130;2023-02-28T11:28:40;7.20;;;6.20;;
75012;SDS011;63567;49.956;20.130;2023-02-28T11:33:45;7.97;;;6.53;;
75012;SDS011;63567;49.956;20.130;2023-02-28T11:36:25;7.93;;;6.15;;
75012;SDS011;63567;49.956;20.130;2023-02-28T11:38:56;10.80;;;9.80;;
75012;SDS011;63567;49.956;20.130;2023-02-28T11:50:13;10.25;;;9.20;;
75012;SDS011;63567;49.956;20.130;2023-02-28T11:52:48;9.63;;;8.65;;
75012;SDS011;63567;49.956;20.130;2023-02-28T11:55:30;6.97;;;6.28;;
75012;SDS011;63567;49.956;20.130;2023-02-28T11:58:16;8.95;;;8.18;;
75012;SDS011;63567;49.956;20.130;2023-02-28T12:03:37;9.90;;;8.93;;
75012;SDS011;63567;49.956;20.130;2023-02-28T12:09:04;11.43;;;10.55;;
75012;SDS011;63567;49.956;20.130;2023-02-28T12:11:48;9.85;;;8.95;;
75012;SDS011;63567;49.956;20.130;2023-02-28T12:28:42;12.02;;;11.02;;
75012;SDS011;63567;49.956;20.130;2023-02-28T12:33:51;14.40;;;13.40;;
75012;SDS011;63567;49.956;20.130;2023-02-28T12:36:19;12.52;;;11.73;;
75012;SDS011;63567;49.956;20.130;2023-02-28T12:39:00;14.25;;;13.25;;
75012;SDS011;63567;49.956;20.130;2023-02-28T12:41:37;14.48;;;13.48;;
75012;SDS011;63567;49.956;20.130;2023-02-28T12:44:10;10.73;;;9.98;;
75012;SDS011;63567;49.956;20.130;2023-02-28T12:46:41;12.80;;;11.88;;
75012;SDS011;63567;49.956;20.130;2023-02-28T12:49:17;12.90;;;12.05;;
75012;SDS011;63567;49.956;20.130;2023-02-28T12:51:48;12.93;;;12.02;;
75012;SDS011;63567;49.956;20.130;2023-02-28T12:56:58;12.18;;;11.18;;
75012;SDS011;63567;49.956;20.130;2023-02-28T13:05:19;8.70;;;7.90;;
75012;SDS011;63567;49.956;20.130;2023-02-28T13:08:12;11.32;;;10.48;;
75012;SDS011;63567;49.956;20.130;2023-02-28T13:10:53;13.20;;;12.20;;
75012;SDS011;63567;49.956;20.130;2023-02-28T13:13:20;13.02;;;11.93;;
75012;SDS011;63567;49.956;20.130;2023-02-28T13:16:04;13.23;;;12.30;;
75012;SDS011;63567;49.956;20.130;2023-02-28T13:21:24;12.18;;;11.38;;
75012;SDS011;63567;49.956;20.130;2023-02-28T13:29:00;11.20;;;10.30;;
75012;SDS011;63567;49.956;20.130;2023-02-28T13:31:27;10.73;;;9.93;;
75012;SDS011;63567;49.956;20.130;2023-02-28T13:36:30;11.05;;;10.15;;
75012;SDS011;63567;49.956;20.130;2023-02-28T13:39:01;11.15;;;10.27;;
75012;SDS011;63567;49.956;20.130;2023-02-28T13:44:04;11.00;;;10.10;;
75012;SDS011;63567;49.956;20.130;2023-02-28T13:57:55;10.48;;;9.68;;
75012;SDS011;63567;49.956;20.130;2023-02-28T14:03:37;7.40;;;6.47;;
75012;SDS011;63567;49.956;20.130;2023-02-28T14:06:13;10.18;;;9.18;;
75012;SDS011;63567;49.956;20.130;2023-02-28T14:11:32;9.30;;;8.52;;
75012;SDS011;63567;49.956;20.130;2023-02-28T14:13:59;9.57;;;8.68;;
75012;SDS011;63567;49.956;20.130;2023-02-28T14:16:26;10.15;;;9.23;;
75012;SDS011;63567;49.956;20.130;2023-02-28T14:19:01;9.68;;;8.77;;
75012;SDS011;63567;49.956;20.130;2023-02-28T14:21:35;11.55;;;10.48;;
75012;SDS011;63567;49.956;20.130;2023-02-28T14:26:44;9.98;;;8.98;;
75012;SDS011;63567;49.956;20.130;2023-02-28T14:32:49;9.43;;;8.38;;
75012;SDS011;63567;49.956;20.130;2023-02-28T14:38:13;11.25;;;9.65;;
75012;SDS011;63567;49.956;20.130;2023-02-28T14:40:43;10.90;;;8.88;;
75012;SDS011;63567;49.956;20.130;2023-02-28T14:43:18;9.95;;;6.90;;
75012;SDS011;63567;49.956;20.130;2023-02-28T14:45:49;10.35;;;8.52;;
75012;SDS011;63567;49.956;20.130;2023-02-28T14:48:17;9.18;;;7.40;;
75012;SDS011;63567;49.956;20.130;2023-02-28T14:50:48;8.40;;;6.25;;
75012;SDS011;63567;49.956;20.130;2023-02-28T14:53:17;9.63;;;6.63;;
75012;SDS011;63567;49.956;20.130;2023-02-28T14:55:45;10.00;;;6.97;;
75012;SDS011;63567;49.956;20.130;2023-02-28T15:00:49;10.52;;;6.95;;
75012;SDS011;63567;49.956;20.130;2023-02-28T15:03:30;11.00;;;7.03;;
75012;SDS011;63567;49.956;20.130;2023-02-28T15:05:56;9.32;;;6.63;;
75012;SDS011;63567;49.956;20.130;2023-02-28T15:08:23;10.02;;;7.40;;
75012;SDS011;63567;49.956;20.130;2023-02-28T15:10:56;10.35;;;6.35;;
75012;SDS011;63567;49.956;20.130;2023-02-28T15:13:36;11.70;;;6.90;;
75012;SDS011;63567;49.956;20.130;2023-02-28T15:16:18;13.45;;;7.05;;
75012;SDS011;63567;49.956;20.130;2023-02-28T15:19:00;10.93;;;6.47;;
75012;SDS011;63567;49.956;20.130;2023-02-28T15:21:37;10.25;;;6.57;;
75012;SDS011;63567;49.956;20.130;2023-02-28T15:24:07;11.73;;;6.82;;
75012;SDS011;63567;49.956;20.130;2023-02-28T15:26:42;10.38;;;6.63;;
75012;SDS011;63567;49.956;20.130;2023-02-28T15:29:15;11.02;;;6.53;;
75012;SDS011;63567;49.956;20.130;2023-02-28T15:31:45;10.60;;;7.28;;
75012;SDS011;63567;49.956;20.130;2023-02-28T15:34:17;11.55;;;6.40;;
75012;SDS011;63567;49.956;20.130;2023-02-28T15:36:45;10.00;;;5.85;;
75012;SDS011;63567;49.956;20.130;2023-02-28T15:39:18;11.47;;;6.17;;
75012;SDS011;63567;49.956;20.130;2023-02-28T15:41:48;11.50;;;6.30;;
75012;SDS011;63567;49.956;20.130;2023-02-28T15:46:59;12.65;;;6.70;;
75012;SDS011;63567;49.956;20.130;2023-02-28T15:49:28;12.57;;;6.45;;
75012;SDS011;63567;49.956;20.130;2023-02-28T15:51:58;10.52;;;6.18;;
75012;SDS011;63567;49.956;20.130;2023-02-28T15:54:27;10.15;;;5.40;;
75012;SDS011;63567;49.956;20.130;2023-02-28T15:56:55;11.07;;;5.93;;
75012;SDS011;63567;49.956;20.130;2023-02-28T15:59:29;12.65;;;5.90;;
75012;SDS011;63567;49.956;20.130;2023-02-28T16:07:30;11.32;;;6.10;;
75012;SDS011;63567;49.956;20.130;2023-02-28T16:09:56;10.50;;;5.10;;
75012;SDS011;63567;49.956;20.130;2023-02-28T16:12:24;11.07;;;5.47;;
75012;SDS011;63567;49.956;20.130;2023-02-28T16:17:22;11.02;;;6.00;;
75012;SDS011;63567;49.956;20.130;2023-02-28T16:19:50;11.77;;;6.80;;
75012;SDS011;63567;49.956;20.130;2023-02-28T16:22:15;16.80;;;6.53;;
75012;SDS011;63567;49.956;20.130;2023-02-28T16:24:41;12.82;;;6.35;;
75012;SDS011;63567;49.956;20.130;2023-02-28T16:27:06;15.23;;;7.43;;
75012;SDS011;63567;49.956;20.130;2023-02-28T16:29:39;13.80;;;6.65;;
75012;SDS011;63567;49.956;20.130;2023-02-28T16:32:04;15.60;;;7.25;;
75012;SDS011;63567;49.956;20.130;2023-02-28T16:34:30;16.75;;;7.53;;
75012;SDS011;63567;49.956;20.130;2023-02-28T16:36:56;14.32;;;7.32;;
75012;SDS011;63567;49.956;20.130;2023-02-28T16:39:23;15.98;;;7.30;;
75012;SDS011;63567;49.956;20.130;2023-02-28T16:41:48;14.70;;;7.73;;
75012;SDS011;63567;49.956;20.130;2023-02-28T16:47:13;16.75;;;9.77;;
75012;SDS011;63567;49.956;20.130;2023-02-28T16:49:38;19.95;;;9.63;;
75012;SDS011;63567;49.956;20.130;2023-02-28T16:52:06;17.23;;;8.13;;
75012;SDS011;63567;49.956;20.130;2023-02-28T16:54:32;15.98;;;8.93;;
75012;SDS011;63567;49.956;20.130;2023-02-28T16:56:57;16.83;;;8.90;;
75012;SDS011;63567;49.956;20.130;2023-02-28T16:59:24;21.02;;;8.73;;
75012;SDS011;63567;49.956;20.130;2023-02-28T17:01:52;19.83;;;8.85;;
75012;SDS011;63567;49.956;20.130;2023-02-28T17:04:18;20.92;;;9.93;;
75012;SDS011;63567;49.956;20.130;2023-02-28T17:06:44;20.00;;;9.20;;
75012;SDS011;63567;49.956;20.130;2023-02-28T17:09:14;17.30;;;8.60;;
75012;SDS011;63567;49.956;20.130;2023-02-28T17:11:42;18.45;;;8.80;;